Time;durP1;ratioP1;P1;durP2;ratioP2;P2;SDS_P1;SDS_P2;PMS_P1;PMS_P2;Temp;Humidity;BMP_temperature;BMP_pressure;BME280_temperature;BME280_humidity;BME280_pressure;Samples;Min_cycle;Max_cycle;Signal;HPM_P1;HPM_P2
2022/01/22 00:00:59;;;;;;;;;22.75;18.25;;;;;6.67;60.73;103412.91;5081247;28;45535;-89
2022/01/22 00:03:25;;;;;;;;;25.50;24.50;;;;;6.81;60.72;103430.28;5081831;28;45487;-90
2022/01/22 00:05:53;;;;;;;;;20.00;20.00;;;;;6.83;60.57;103431.25;5063328;27;45591;-92
2022/01/22 00:08:31;;;;;;;;;25.75;25.75;;;;;6.82;60.77;103427.75;5069372;27;46673;-91
2022/01/22 00:11:04;;;;;;;;;23.00;22.00;;;;;6.84;60.91;103417.34;5081577;27;45579;-91
2022/01/22 00:16:30;;;;;;;;;24.75;22.00;;;;;6.74;60.88;103395.00;5073796;28;45336;-91
2022/01/22 00:18:58;;;;;;;;;28.00;22.50;;;;;6.71;60.95;103394.84;5067178;27;47963;-93
2022/01/22 00:21:24;;;;;;;;;21.00;20.50;;;;;6.76;60.54;103398.63;5066881;28;45383;-91
2022/01/22 00:23:56;;;;;;;;;24.25;23.25;;;;;6.65;60.59;103381.41;5080778;28;45432;-91
2022/01/22 00:26:25;;;;;;;;;22.00;21.25;;;;;6.90;60.76;103419.44;5065732;27;45378;-92
2022/01/22 00:28:50;;;;;;;;;24.25;23.75;;;;;6.72;60.72;103373.06;5084788;27;47632;-93
2022/01/22 00:31:15;;;;;;;;;21.50;21.00;;;;;6.75;60.51;103381.09;5084127;27;45421;-92
2022/01/22 00:33:41;;;;;;;;;23.50;20.50;;;;;6.92;60.53;103410.81;5108538;27;45536;-92
2022/01/22 00:36:21;;;;;;;;;22.25;19.75;;;;;6.90;60.75;103393.25;5078743;27;45812;-84
2022/01/22 00:53:19;;;;;;;;;22.75;21.50;;;;;6.89;60.46;103404.50;4972429;27;45729;-89
2022/01/22 00:56:13;;;;;;;;;18.50;18.50;;;;;6.74;60.62;103365.31;5080909;27;45383;-90
2022/01/22 01:03:10;;;;;;;;;26.75;21.00;;;;;6.87;60.56;103408.75;5082326;27;45358;-90
2022/01/22 01:05:43;;;;;;;;;20.50;17.00;;;;;6.72;60.45;103374.81;5078176;27;47354;-88
2022/01/22 01:08:21;;;;;;;;;;;;;;;;;;;;;
2022/01/22 01:11:10;;;;;;;;;20.50;17.25;;;;;6.79;60.29;103400.47;5103866;27;69208;-90
2022/01/22 01:13:44;;;;;;;;;21.25;19.25;;;;;6.77;60.49;103395.19;5080238;27;45579;-89
2022/01/22 01:34:49;;;;;;;;;23.75;21.00;;;;;6.84;60.56;103391.16;5089162;27;45583;-85
2022/01/22 01:37:17;;;;;;;;;21.75;21.25;;;;;6.81;60.50;103389.28;5087742;27;45398;-86
2022/01/22 01:39:49;;;;;;;;;25.00;22.00;;;;;6.75;60.36;103375.84;5073637;27;46730;-85
2022/01/22 01:45:06;;;;;;;;;21.00;17.50;;;;;6.75;60.50;103378.47;5058699;27;45635;-85
2022/01/22 01:47:32;;;;;;;;;17.00;17.00;;;;;6.73;60.42;103367.00;5084266;27;45326;-86
2022/01/22 01:50:04;;;;;;;;;21.50;17.25;;;;;6.71;60.31;103365.13;5097706;27;46124;-86
2022/01/22 01:52:46;;;;;;;;;24.75;20.25;;;;;6.81;60.09;103385.75;5093783;27;45757;-86
2022/01/22 01:55:22;;;;;;;;;17.50;17.00;;;;;6.63;60.29;103369.97;5069302;27;45482;-86
2022/01/22 01:57:53;;;;;;;;;21.25;21.00;;;;;6.76;60.34;103380.28;5100316;27;45264;-86
2022/01/22 02:00:26;;;;;;;;;22.00;21.00;;;;;6.69;60.37;103375.53;5086233;27;47324;-86
2022/01/22 02:02:58;;;;;;;;;24.25;17.75;;;;;6.68;60.46;103365.84;5100104;27;45275;-85
2022/01/22 02:05:24;;;;;;;;;18.75;18.50;;;;;6.74;60.33;103379.31;5103856;27;45413;-84
2022/01/22 02:07:53;;;;;;;;;18.25;17.50;;;;;6.80;60.44;103386.59;5101153;27;45520;-86
2022/01/22 02:10:24;;;;;;;;;20.00;17.00;;;;;6.81;60.34;103388.38;5100423;27;45390;-86
2022/01/22 02:23:45;;;;;;;;;20.50;18.00;;;;;6.69;60.61;103361.56;5105868;27;45488;-85
2022/01/22 02:26:17;;;;;;;;;21.50;18.25;;;;;6.90;60.86;103388.91;5080999;27;45282;-86
2022/01/22 02:28:50;;;;;;;;;12.50;11.50;;;;;6.85;60.47;103378.16;5082855;27;45266;-86
2022/01/22 02:31:38;;;;;;;;;21.00;19.00;;;;;6.75;60.65;103361.88;5102924;27;46205;-86
2022/01/22 02:34:15;;;;;;;;;19.75;17.75;;;;;6.79;60.63;103363.81;5101228;27;45441;-86
2022/01/22 02:37:03;;;;;;;;;18.00;16.25;;;;;6.75;60.21;103369.72;5103631;27;45634;-86
2022/01/22 02:39:41;;;;;;;;;19.75;16.75;;;;;6.69;60.48;103361.56;5103286;27;45677;-85
2022/01/22 02:42:17;;;;;;;;;18.75;17.25;;;;;6.77;60.61;103375.97;5105958;27;45330;-84
2022/01/22 02:44:46;;;;;;;;;17.50;16.50;;;;;6.81;60.41;103386.66;5104284;27;45546;-86
2022/01/22 02:47:15;;;;;;;;;15.25;15.25;;;;;6.72;60.65;103372.19;5103142;27;45386;-85
2022/01/22 02:49:46;;;;;;;;;20.25;19.00;;;;;6.65;60.55;103346.47;5107963;27;45429;-84
2022/01/22 02:52:24;;;;;;;;;16.25;16.25;;;;;6.75;60.48;103365.38;5084525;27;47977;-85
2022/01/22 02:54:56;;;;;;;;;17.25;14.75;;;;;6.75;60.81;103357.53;5102951;27;45389;-85
2022/01/22 02:57:24;;;;;;;;;16.75;16.75;;;;;6.63;60.84;103335.94;5085055;27;45377;-86
2022/01/22 03:00:06;;;;;;;;;;;;;;;;;;;;;
2022/01/22 03:02:32;;;;;;;;;17.50;14.50;;;;;6.80;60.75;103365.66;5103643;27;74604;-85
2022/01/22 03:05:13;;;;;;;;;15.50;14.50;;;;;6.70;60.93;103345.91;5086789;27;45310;-85
2022/01/22 03:07:43;;;;;;;;;17.75;16.50;;;;;6.63;60.86;103335.94;5085512;27;45342;-85
2022/01/22 03:10:16;;;;;;;;;15.00;14.00;;;;;6.73;60.86;103346.06;5103126;27;45462;-86
2022/01/22 03:12:53;;;;;;;;;19.75;17.00;;;;;6.77;60.93;103355.91;5081443;27;46220;-86
2022/01/22 03:18:19;;;;;;;;;25.50;20.75;;;;;6.71;60.93;103350.34;5103023;27;45512;-85
2022/01/22 03:29:50;;;;;;;;;18.25;16.50;;;;;6.71;61.02;103346.81;5103049;27;45471;-86
2022/01/22 03:31:43;;;;;;;;;19.75;17.75;;;;;6.85;61.21;103372.03;5074523;27;45247;-86
2022/01/22 03:34:16;;;;;;;;;15.25;14.75;;;;;6.79;61.01;103353.34;5102744;27;46236;-86
2022/01/22 03:36:44;;;;;;;;;21.00;19.75;;;;;6.81;61.49;103362.19;5085049;27;45254;-86
2022/01/22 03:39:10;;;;;;;;;19.00;17.50;;;;;6.70;61.33;103343.28;5084936;27;45311;-86
2022/01/22 03:41:44;;;;;;;;;17.75;14.00;;;;;6.74;61.19;103344.38;5084754;27;45569;-85
2022/01/22 03:44:13;;;;;;;;;16.00;15.25;;;;;6.89;61.22;103367.84;5108137;27;45426;-85
2022/01/22 03:46:41;;;;;;;;;21.75;16.00;;;;;6.82;61.12;103356.16;5081332;27;45384;-85
2022/01/22 03:49:10;;;;;;;;;11.50;10.00;;;;;6.79;61.07;103354.28;5106400;27;45241;-85
2022/01/22 03:51:38;;;;;;;;;18.50;17.50;;;;;6.88;61.67;103371.31;5102320;27;45574;-85
2022/01/22 03:54:06;;;;;;;;;18.50;18.50;;;;;6.78;61.05;103347.22;5102336;27;46464;-85
2022/01/22 03:56:32;;;;;;;;;17.50;17.00;;;;;6.84;61.17;103346.66;5102347;27;45290;-85
2022/01/22 03:59:06;;;;;;;;;17.00;16.00;;;;;6.82;61.31;103350.94;5083978;27;45216;-84
2022/01/22 04:04:16;;;;;;;;;17.25;16.75;;;;;6.95;61.45;103369.09;5102401;27;45898;-86
2022/01/22 04:09:33;;;;;;;;;15.75;13.00;;;;;6.82;61.38;103348.31;5105705;27;45490;-86
2022/01/22 04:12:04;;;;;;;;;17.00;15.75;;;;;6.98;61.46;103381.47;5084165;27;45342;-86
2022/01/22 04:14:46;;;;;;;;;21.25;20.75;;;;;6.89;61.55;103352.13;5093371;27;45694;-86
2022/01/22 04:25:17;;;;;;;;;17.75;15.50;;;;;6.95;61.61;103356.00;5106455;27;45968;-86
2022/01/22 04:27:45;;;;;;;;;18.00;18.00;;;;;6.96;61.65;103357.78;5083713;27;45476;-86
2022/01/22 04:30:13;;;;;;;;;18.75;16.75;;;;;6.89;61.61;103339.03;5069728;28;45260;-85
2022/01/22 04:32:43;;;;;;;;;17.25;14.00;;;;;7.04;61.69;103364.34;5093722;27;45366;-86
2022/01/22 04:35:08;;;;;;;;;18.75;16.75;;;;;6.97;61.69;103358.69;5101499;27;45381;-86
2022/01/22 04:37:37;;;;;;;;;18.25;13.50;;;;;6.89;61.83;103334.69;5101873;27;45246;-86
2022/01/22 04:40:03;;;;;;;;;15.25;13.00;;;;;7.05;61.73;103360.88;5101486;27;45404;-86
2022/01/22 04:42:34;;;;;;;;;18.50;15.25;;;;;6.94;61.87;103341.09;5083983;27;45459;-86
2022/01/22 04:45:16;;;;;;;;;18.00;15.25;;;;;6.99;61.71;103347.47;5102310;27;45516;-85
2022/01/22 04:48:10;;;;;;;;;15.75;14.00;;;;;6.96;61.68;103333.31;5084345;27;45857;-85
2022/01/22 04:55:56;;;;;;;;;21.00;17.50;;;;;7.06;61.88;103372.28;5104153;27;45300;-86
2022/01/22 04:58:22;;;;;;;;;19.00;16.75;;;;;6.98;62.05;103344.78;5101773;27;45443;-85
2022/01/22 05:00:47;;;;;;;;;18.50;18.25;;;;;6.91;62.10;103334.81;5101146;27;45201;-85
2022/01/22 05:03:25;;;;;;;;;16.50;15.00;;;;;6.91;61.77;103340.94;5101524;27;45356;-85
2022/01/22 05:05:54;;;;;;;;;18.50;16.50;;;;;6.86;62.24;103342.41;5101493;27;45484;-85
2022/01/22 05:08:21;;;;;;;;;20.75;18.00;;;;;7.06;62.00;103373.19;5104331;27;45312;-86
2022/01/22 05:10:47;;;;;;;;;15.50;11.50;;;;;6.98;62.09;103353.53;5101437;27;45308;-85
2022/01/22 05:13:14;;;;;;;;;18.25;15.50;;;;;7.11;62.04;103373.44;5106289;27;45298;-85
2022/01/22 05:15:40;;;;;;;;;17.75;16.25;;;;;7.14;62.32;103370.06;5100624;27;45391;-85
2022/01/22 05:18:09;;;;;;;;;18.00;12.75;;;;;7.03;62.22;103349.44;5101183;27;45491;-85
2022/01/22 05:20:46;;;;;;;;;15.25;14.50;;;;;6.99;61.96;103329.13;5064181;28;45346;-85
2022/01/22 05:23:17;;;;;;;;;18.00;15.75;;;;;7.07;62.15;103348.78;5075849;27;45283;-86
2022/01/22 05:26:13;;;;;;;;;17.00;13.25;;;;;7.08;62.09;103354.91;5081252;27;47265;-86
2022/01/22 05:37:07;;;;;;;;;20.75;19.25;;;;;6.99;61.97;103343.97;5103696;27;45796;-84
2022/01/22 05:39:38;;;;;;;;;19.00;15.75;;;;;7.01;62.03;103352.81;5082416;27;45697;-85
2022/01/22 05:42:09;;;;;;;;;18.25;17.25;;;;;6.98;62.02;103342.16;5087163;27;45425;-85
2022/01/22 05:44:36;;;;;;;;;22.75;19.25;;;;;7.00;61.98;103358.84;5081628;27;45283;-85
2022/01/22 05:47:06;;;;;;;;;20.50;19.75;;;;;6.89;61.72;103336.44;5081309;27;45919;-86
2022/01/22 05:49:36;;;;;;;;;24.00;22.75;;;;;7.12;62.13;103369.97;5086122;27;45382;-84
2022/01/22 05:52:06;;;;;;;;;23.25;18.75;;;;;7.10;61.68;103370.72;5082277;27;45429;-85
2022/01/22 06:00:09;;;;;;;;;21.50;18.75;;;;;7.09;61.85;103363.69;5089046;27;45168;-85
2022/01/22 06:02:43;;;;;;;;;22.00;19.00;;;;;6.99;61.88;103350.09;5101017;27;45479;-85
2022/01/22 06:05:09;;;;;;;;;22.25;18.50;;;;;6.92;61.69;103347.06;5102054;27;45401;-86
2022/01/22 06:07:34;;;;;;;;;22.75;20.50;;;;;6.95;61.79;103349.84;5103171;27;46296;-85
2022/01/22 06:10:14;;;;;;;;;26.25;21.75;;;;;6.95;61.85;103363.84;5085518;27;45380;-85
2022/01/22 06:15:21;;;;;;;;;23.00;19.25;;;;;7.01;61.67;103377.28;5106694;27;45457;-84
2022/01/22 06:17:54;;;;;;;;;26.75;23.25;;;;;7.02;62.14;103388.63;5087860;27;48293;-85
2022/01/22 06:20:22;;;;;;;;;21.50;20.75;;;;;7.03;61.94;103382.56;5084809;27;45437;-85
2022/01/22 06:22:47;;;;;;;;;21.50;20.00;;;;;6.95;62.06;103366.47;5084912;27;45252;-85
2022/01/22 06:25:18;;;;;;;;;22.25;18.00;;;;;6.90;62.21;103357.47;5084650;27;45516;-85
2022/01/22 06:27:44;;;;;;;;;18.25;17.00;;;;;6.93;61.92;103360.25;5092186;27;46126;-85
2022/01/22 06:30:12;;;;;;;;;25.50;24.00;;;;;7.01;62.13;103386.84;5079726;28;45452;-85
2022/01/22 06:32:38;;;;;;;;;27.00;21.75;;;;;6.91;61.94;103364.50;5065867;28;45284;-85
2022/01/22 06:35:09;;;;;;;;;25.00;23.75;;;;;6.92;61.81;103361.03;5057794;27;45717;-85
2022/01/22 06:37:37;;;;;;;;;25.25;24.25;;;;;7.00;61.82;103383.34;5103034;27;45788;-86
2022/01/22 06:42:32;;;;;;;;;26.75;23.75;;;;;6.99;61.97;103386.75;5092973;27;45367;-85
2022/01/22 06:45:02;;;;;;;;;25.25;22.25;;;;;6.96;61.86;103377.84;5088906;27;45448;-85
2022/01/22 06:47:33;;;;;;;;;23.00;22.75;;;;;7.09;61.85;103408.22;5072121;28;46494;-86
2022/01/22 06:50:01;;;;;;;;;24.75;20.00;;;;;6.91;61.96;103368.84;5095437;27;45492;-86
2022/01/22 06:52:35;;;;;;;;;20.75;20.25;;;;;6.97;61.85;103391.00;5099968;27;45433;-86
2022/01/22 06:55:00;;;;;;;;;27.25;23.75;;;;;6.93;61.95;103377.69;5051780;28;45513;-85
2022/01/22 06:57:26;;;;;;;;;27.00;23.50;;;;;6.99;62.12;103388.47;5098261;27;46056;-85
2022/01/22 06:59:54;;;;;;;;;27.50;23.75;;;;;6.87;61.83;103370.41;5082879;28;45228;-85
2022/01/22 07:02:20;;;;;;;;;21.75;18.50;;;;;6.87;62.06;103367.78;5085886;27;45323;-86
2022/01/22 07:04:53;;;;;;;;;26.25;23.00;;;;;6.99;61.55;103384.13;5084327;27;45662;-86
2022/01/22 07:07:23;;;;;;;;;27.00;24.25;;;;;6.99;61.77;103378.91;5070473;27;47147;-86
2022/01/22 07:09:51;;;;;;;;;23.50;23.00;;;;;6.91;61.61;103377.59;5090541;28;45378;-86
2022/01/22 07:12:25;;;;;;;;;28.00;23.25;;;;;6.92;61.95;103381.09;5089592;27;45307;-86
2022/01/22 07:15:07;;;;;;;;;26.75;22.25;;;;;6.97;61.85;103388.38;5093297;27;45532;-85
2022/01/22 07:17:40;;;;;;;;;24.25;21.75;;;;;6.84;62.07;103376.38;5061143;27;47504;-88
2022/01/22 07:20:18;;;;;;;;;29.00;24.00;;;;;6.80;62.05;103370.88;5081931;27;45923;-85
2022/01/22 07:25:31;;;;;;;;;27.50;23.50;;;;;6.98;62.15;103399.78;5097900;27;45264;-84
2022/01/22 07:27:59;;;;;;;;;30.50;27.50;;;;;7.06;62.18;103414.19;5074963;28;46849;-84
2022/01/22 07:30:33;;;;;;;;;25.50;23.75;;;;;6.94;62.07;103387.34;5083566;27;46118;-84
2022/01/22 07:33:01;;;;;;;;;29.00;24.75;;;;;6.99;62.25;103396.34;5089594;27;45249;-84
2022/01/22 07:35:29;;;;;;;;;26.25;24.00;;;;;7.00;62.01;103413.84;5065149;28;45554;-85
2022/01/22 07:37:57;;;;;;;;;26.75;23.00;;;;;6.91;62.07;103392.41;5079715;27;47877;-84
2022/01/22 07:40:28;;;;;;;;;28.25;23.00;;;;;6.97;61.74;103403.22;5083664;27;45305;-85
2022/01/22 07:42:57;;;;;;;;;26.00;24.25;;;;;7.04;61.86;103413.19;5104402;27;45385;-84
2022/01/22 07:45:25;;;;;;;;;32.75;27.00;;;;;6.99;61.81;103409.44;5083011;27;45748;-86
2022/01/22 07:47:50;;;;;;;;;23.25;19.50;;;;;7.03;61.90;103414.94;5101281;27;45438;-85
2022/01/22 07:50:18;;;;;;;;;23.25;22.00;;;;;6.99;61.71;103405.09;5097102;27;45408;-85
2022/01/22 07:53:02;;;;;;;;;;;;;;;;;;;;;
2022/01/22 07:55:31;;;;;;;;;31.75;27.50;;;;;6.92;61.89;103395.09;5098365;27;71794;-87
2022/01/22 07:58:14;;;;;;;;;33.25;27.25;;;;;7.11;61.73;103424.91;5104036;27;48445;-84
2022/01/22 08:01:27;;;;;;;;;28.50;24.50;;;;;7.11;61.67;103419.66;5101422;27;45420;-87
2022/01/22 08:04:06;;;;;;;;;;;;;;;;;;;;;
2022/01/22 08:06:44;;;;;;;;;31.00;28.25;;;;;7.03;61.63;103414.94;5100025;27;71697;-86
2022/01/22 08:09:15;;;;;;;;;32.75;28.50;;;;;7.06;61.80;103416.81;5082505;27;47104;-86
2022/01/22 08:11:41;;;;;;;;;28.75;19.00;;;;;7.05;61.69;103418.50;5100674;27;45479;-85
2022/01/22 08:14:23;;;;;;;;;21.50;17.75;;;;;7.11;61.69;103438.00;5082969;27;45234;-86
2022/01/22 08:16:59;;;;;;;;;23.25;20.00;;;;;6.98;61.45;103407.66;5084802;27;45468;-86
2022/01/22 08:19:30;;;;;;;;;25.25;24.00;;;;;7.11;61.68;103433.69;5078550;27;46883;-86
2022/01/22 08:22:10;;;;;;;;;;;;;;;;;;;;;
2022/01/22 08:25:16;;;;;;;;;;;;;;;;;;;;;
2022/01/22 08:31:03;;;;;;;;;26.00;23.75;;;;;7.03;61.60;103419.25;5102992;27;45447;-85
2022/01/22 08:36:50;;;;;;;;;29.75;22.50;;;;;7.17;61.41;103448.81;5049155;27;45716;-86
2022/01/22 08:39:17;;;;;;;;;30.50;25.25;;;;;7.10;61.55;103442.34;5088443;27;45634;-87
2022/01/22 08:41:44;;;;;;;;;28.00;23.50;;;;;6.99;61.45;103422.53;5100552;27;46188;-85
2022/01/22 08:44:12;;;;;;;;;33.25;29.25;;;;;7.12;61.21;103437.19;5099943;27;45343;-84
2022/01/22 08:46:52;;;;;;;;;33.75;30.50;;;;;7.06;61.17;103428.19;5099558;27;45222;-86
2022/01/22 08:49:44;;;;;;;;;35.75;28.75;;;;;7.15;61.05;103446.09;5082651;27;45784;-88
2022/01/22 08:52:26;;;;;;;;;;;;;;;;;;;;;
2022/01/22 09:12:52;;;;;;;;;;;;;;;;;;;;;
2022/01/22 09:26:57;;;;;;;;;;;;;;;;;;;;;
2022/01/22 09:33:59;;;;;;;;;;;;;;;;;;;;;
2022/01/22 09:37:03;;;;;;;;;45.25;38.00;;;;;7.46;60.52;103498.47;4869057;29;72878;-85
2022/01/22 09:43:17;;;;;;;;;28.75;27.00;;;;;7.41;60.11;103476.34;4975041;28;45560;-86
2022/01/22 09:46:42;;;;;;;;;;;;;;;;;;;;;
2022/01/22 09:53:05;;;;;;;;;25.25;23.50;;;;;7.57;60.38;103506.00;4938347;28;45398;-84
2022/01/22 09:55:52;;;;;;;;;31.75;26.75;;;;;7.54;60.36;103500.56;4957185;28;45430;-86
2022/01/22 09:58:33;;;;;;;;;;;;;;;;;;;;;
2022/01/22 10:01:24;;;;;;;;;33.75;29.00;;;;;7.56;59.82;103496.31;4978304;28;72923;-84
2022/01/22 11:01:50;;;;;;;;;;;;;;;;;;;;;
2022/01/22 11:12:10;;;;;;;;;30.50;27.50;;;;;8.16;58.82;103500.31;6011031;23;45763;-89
2022/01/22 11:22:10;;;;;;;;;21.50;19.50;;;;;8.07;58.35;103468.34;5940712;23;45702;-88
2022/01/22 11:24:54;;;;;;;;;;;;;;;;;;;;;
2022/01/22 11:27:22;;;;;;;;;28.00;23.75;;;;;8.15;58.17;103482.75;6126848;23;72790;-83
2022/01/22 11:29:58;;;;;;;;;32.75;24.00;;;;;8.29;58.12;103488.72;6131301;23;45317;-83
2022/01/22 11:32:52;;;;;;;;;26.75;25.00;;;;;8.29;58.11;103489.63;6139310;23;45488;-84
2022/01/22 11:35:58;;;;;;;;;23.75;21.50;;;;;8.38;58.56;103489.16;6162284;23;47020;-85
2022/01/22 11:42:13;;;;;;;;;27.00;24.75;;;;;8.44;58.18;103480.72;6080965;23;45489;-84
2022/01/22 11:45:01;;;;;;;;;;;;;;;;;;;;;
2022/01/22 11:48:19;;;;;;;;;22.75;18.50;;;;;8.36;57.92;103464.56;6290240;22;74989;-86
2022/01/22 11:51:19;;;;;;;;;;;;;;;;;;;;;
2022/01/22 11:54:06;;;;;;;;;;;;;;;;;;;;;
2022/01/22 12:00:13;;;;;;;;;30.75;27.50;;;;;8.55;57.49;103474.28;6274358;22;45423;-85
2022/01/22 12:02:38;;;;;;;;;20.50;19.00;;;;;8.50;57.74;103470.53;6279859;22;45324;-85
2022/01/22 12:05:07;;;;;;;;;26.50;22.25;;;;;8.46;57.68;103461.59;6277380;22;45098;-86
2022/01/22 12:08:03;;;;;;;;;29.50;26.25;;;;;8.47;57.50;103441.50;6275139;22;45434;-87
2022/01/22 12:10:43;;;;;;;;;27.25;24.00;;;;;8.66;57.93;103462.59;6253286;22;46633;-85
2022/01/22 12:16:49;;;;;;;;;;;;;;;;;;;;;
2022/01/22 12:20:44;;;;;;;;;34.75;32.00;;;;;8.69;57.18;103457.47;6276684;22;73127;-86
2022/01/22 12:22:40;;;;;;;;;33.50;28.00;;;;;8.68;57.87;103458.28;6243704;22;45447;-84
2022/01/22 12:25:14;;;;;;;;;24.50;20.50;;;;;8.66;57.30;103449.47;6275749;22;45586;-85
2022/01/22 12:27:55;;;;;;;;;30.50;26.00;;;;;8.63;57.29;103443.13;6247544;22;45386;-85
2022/01/22 12:30:44;;;;;;;;;27.25;26.00;;;;;8.67;56.96;103452.97;6247500;22;45473;-83
2022/01/22 12:36:40;;;;;;;;;34.50;28.50;;;;;8.44;57.40;103417.72;6279285;22;45149;-85
2022/01/22 12:39:21;;;;;;;;;;;;;;;;;;;;;
2022/01/22 12:42:10;;;;;;;;;;;;;;;;;;;;;
2022/01/22 12:45:01;;;;;;;;;36.50;30.00;;;;;8.66;57.37;103417.00;6274425;22;75448;-85
2022/01/22 12:47:27;;;;;;;;;33.75;27.75;;;;;8.80;57.41;103435.25;6275147;22;45323;-85
2022/01/22 12:50:07;;;;;;;;;32.00;28.75;;;;;8.60;57.42;103391.38;6249824;22;45335;-84
2022/01/22 12:52:37;;;;;;;;;38.00;32.50;;;;;8.66;56.95;103390.75;6249110;22;45440;-85
2022/01/22 12:55:37;;;;;;;;;;;;;;;;;;;;;
2022/01/22 13:01:28;;;;;;;;;29.25;29.00;;;;;8.83;57.08;103426.59;6226524;22;45118;-84
2022/01/22 13:04:08;;;;;;;;;;;;;;;;;;;;;
2022/01/22 13:07:10;;;;;;;;;38.00;32.50;;;;;8.84;57.38;103423.13;6274237;22;75080;-84
2022/01/22 13:09:46;;;;;;;;;32.00;29.75;;;;;8.75;57.11;103389.47;6223633;22;45446;-83
2022/01/22 13:12:14;;;;;;;;;30.25;27.25;;;;;8.74;57.08;103402.53;6276552;22;45244;-83
2022/01/22 13:14:57;;;;;;;;;26.50;25.00;;;;;8.77;57.24;103398.34;6248175;22;45620;-85
2022/01/22 13:17:35;;;;;;;;;39.25;33.25;;;;;8.87;56.97;103411.88;6247868;22;47990;-84
2022/01/22 13:20:28;;;;;;;;;32.75;30.75;;;;;8.63;56.88;103367.88;6251694;22;45291;-87
2022/01/22 13:22:58;;;;;;;;;38.00;32.50;;;;;8.75;57.22;103407.84;6248974;22;45121;-86
2022/01/22 13:29:10;;;;;;;;;30.00;26.50;;;;;8.67;57.61;103376.81;6277874;22;45379;-86
2022/01/22 13:31:38;;;;;;;;;26.75;23.25;;;;;8.79;56.88;103398.38;6246782;22;45673;-84
2022/01/22 13:34:24;;;;;;;;;29.50;25.75;;;;;8.72;56.66;103384.09;6275729;22;45455;-82
2022/01/22 13:37:28;;;;;;;;;25.50;20.50;;;;;8.72;56.90;103380.56;6247561;22;45293;-81
2022/01/22 13:47:52;;;;;;;;;40.25;33.25;;;;;8.63;57.28;103367.88;6275605;22;45527;-83
2022/01/22 13:50:28;;;;;;;;;34.75;29.00;;;;;8.74;57.16;103376.25;6275476;22;46491;-83
2022/01/22 13:52:53;;;;;;;;;35.00;32.00;;;;;8.76;57.03;103374.59;6277214;22;45680;-83
2022/01/22 13:55:21;;;;;;;;;42.50;35.00;;;;;8.80;57.15;103380.09;6276994;22;45415;-84
2022/01/22 13:57:47;;;;;;;;;38.00;32.50;;;;;8.76;56.62;103372.88;6250630;22;45465;-83
2022/01/22 14:00:19;;;;;;;;;35.75;30.75;;;;;8.78;57.03;103376.47;6278971;22;45499;-82
2022/01/22 14:05:31;;;;;;;;;41.75;37.75;;;;;8.70;57.08;103354.22;6275435;22;45421;-82
2022/01/22 14:08:06;;;;;;;;;42.00;35.50;;;;;8.77;57.20;103363.28;6247461;22;45697;-82
2022/01/22 14:10:32;;;;;;;;;44.50;38.25;;;;;8.84;57.10;103366.25;6246900;22;47217;-82
2022/01/22 14:13:12;;;;;;;;;45.25;35.75;;;;;8.90;57.19;103384.03;6280013;22;45307;-82
2022/01/22 14:15:44;;;;;;;;;39.00;33.25;;;;;8.74;57.15;103360.50;6276870;22;45432;-82
2022/01/22 14:18:23;;;;;;;;;34.25;30.50;;;;;8.73;57.07;103354.34;6251616;22;45247;-82
2022/01/22 14:20:54;;;;;;;;;35.50;30.25;;;;;8.82;57.00;103386.31;6275021;22;45367;-83
2022/01/22 14:23:32;;;;;;;;;38.25;36.00;;;;;8.78;57.21;103381.72;6248271;22;45454;-83
2022/01/22 14:26:09;;;;;;;;;37.00;34.25;;;;;8.70;57.39;103369.97;6274384;22;45269;-83
2022/01/22 14:28:44;;;;;;;;;46.00;37.75;;;;;8.63;57.21;103360.00;6248135;22;45639;-83
2022/01/22 14:31:44;;;;;;;;;43.00;36.25;;;;;8.76;57.27;103379.84;6275574;22;45506;-83
2022/01/22 14:34:11;;;;;;;;;35.00;33.25;;;;;8.61;57.63;103349.44;6247856;22;45194;-83
2022/01/22 14:36:55;;;;;;;;;38.75;31.00;;;;;8.75;57.11;103378.06;6249436;22;45478;-83
2022/01/22 14:44:50;;;;;;;;;28.75;27.25;;;;;8.72;57.22;103370.94;6275469;22;45361;-88
2022/01/22 14:47:19;;;;;;;;;32.00;29.50;;;;;8.70;57.02;103366.44;6246633;22;45235;-86
2022/01/22 14:49:51;;;;;;;;;38.75;33.75;;;;;8.68;57.19;103373.34;6273540;22;45419;-85
2022/01/22 14:52:25;;;;;;;;;36.00;32.50;;;;;8.54;57.27;103346.47;6274734;22;45351;-87
2022/01/22 14:55:00;;;;;;;;;40.25;34.75;;;;;8.59;57.55;103342.31;6253398;22;45373;-85
2022/01/22 14:57:37;;;;;;;;;35.50;31.00;;;;;8.60;57.17;103342.38;6248870;22;45204;-84
2022/01/22 15:00:07;;;;;;;;;36.00;33.00;;;;;8.62;57.21;103347.72;6274760;22;45224;-86
2022/01/22 15:02:37;;;;;;;;;39.25;35.00;;;;;8.62;57.27;103347.72;6282259;22;46152;-82
2022/01/22 15:05:12;;;;;;;;;46.50;32.75;;;;;8.50;57.45;103329.69;6272635;22;45467;-86
2022/01/22 15:07:38;;;;;;;;;41.75;34.25;;;;;8.53;57.34;103339.41;6274301;22;45385;-88
2022/01/22 15:10:11;;;;;;;;;36.75;33.25;;;;;8.58;57.43;103345.75;6274395;22;45456;-82
2022/01/22 15:12:39;;;;;;;;;41.00;35.00;;;;;8.60;57.50;103351.97;6246427;22;46655;-85
2022/01/22 15:15:07;;;;;;;;;38.50;32.75;;;;;8.50;57.66;103339.25;6274882;22;45446;-86
2022/01/22 15:18:06;;;;;;;;;38.00;32.75;;;;;8.52;57.59;103354.25;6247275;22;45689;-85
2022/01/22 15:20:53;;;;;;;;;43.25;36.50;;;;;8.55;57.66;103359.66;6248679;22;45751;-84
2022/01/22 15:23:43;;;;;;;;;;;;;;;;;;;;;
2022/01/22 15:26:23;;;;;;;;;;;;;;;;;;;;;
2022/01/22 15:28:56;;;;;;;;;42.50;36.50;;;;;8.34;58.10;103346.41;6268631;22;67454;-87
2022/01/22 15:34:14;;;;;;;;;44.00;36.75;;;;;8.22;58.30;103337.94;6279076;22;45430;-88
2022/01/22 15:36:52;;;;;;;;;;;;;;;;;;;;;
2022/01/22 15:39:21;;;;;;;;;42.75;36.25;;;;;8.36;58.43;103362.19;6290343;22;69097;-92
2022/01/22 15:41:48;;;;;;;;;42.00;35.25;;;;;8.25;58.29;103337.19;6289277;22;45464;-90
2022/01/22 15:44:40;;;;;;;;;;;;;;;;;;;;;
2022/01/22 15:47:08;;;;;;;;;35.00;32.25;;;;;8.18;58.39;103341.25;6279360;22;71721;-91
2022/01/22 15:50:24;;;;;;;;;35.75;29.50;;;;;8.06;58.53;103333.66;6252944;22;45237;-96
2022/01/22 15:53:03;;;;;;;;;37.50;33.00;;;;;8.01;58.82;103343.03;6252949;22;45101;-86
2022/01/22 15:56:07;;;;;;;;;;;;;;;;;;;;;
2022/01/22 16:02:13;;;;;;;;;42.25;36.25;;;;;8.02;59.25;103367.53;6239801;22;45215;-89
2022/01/22 16:04:48;;;;;;;;;38.00;33.75;;;;;7.93;59.12;103358.38;6228871;22;45205;-92
2022/01/22 16:07:23;;;;;;;;;38.50;33.25;;;;;8.02;59.44;103380.66;6285456;22;47496;-89
2022/01/22 16:10:05;;;;;;;;;42.75;36.00;;;;;7.97;59.55;103379.56;6280590;22;45299;-87
2022/01/22 16:12:34;;;;;;;;;40.75;36.00;;;;;7.92;59.53;103380.22;6276932;22;45398;-90
2022/01/22 16:18:02;;;;;;;;;41.50;37.50;;;;;7.74;60.20;103358.31;6268884;22;45407;-91
2022/01/22 16:20:30;;;;;;;;;39.50;36.75;;;;;7.84;59.77;103376.31;6256307;22;45150;-89
2022/01/22 16:23:02;;;;;;;;;41.50;34.75;;;;;7.67;60.23;103357.13;6252680;22;45186;-85
2022/01/22 16:25:36;;;;;;;;;34.00;32.00;;;;;7.70;59.96;103364.25;6250614;22;45295;-86
2022/01/22 16:28:02;;;;;;;;;36.00;34.75;;;;;7.77;60.33;103386.41;6252772;22;48170;-91
2022/01/22 16:30:33;;;;;;;;;30.75;27.50;;;;;7.76;60.22;103396.00;6252143;22;45142;-90
2022/01/22 16:33:17;;;;;;;;;40.50;35.50;;;;;7.57;60.61;103373.19;6248852;22;45734;-90
2022/01/22 16:35:48;;;;;;;;;34.50;32.00;;;;;7.77;60.80;103402.13;6274173;22;45442;-82
2022/01/22 16:38:13;;;;;;;;;43.25;34.75;;;;;7.66;60.73;103385.88;6246841;22;48054;-83
2022/01/22 16:40:49;;;;;;;;;38.75;34.50;;;;;7.62;60.72;103376.97;6280393;22;45670;-87
2022/01/22 16:43:15;;;;;;;;;42.25;37.00;;;;;7.75;60.95;103399.44;6254278;22;45193;-84
2022/01/22 16:46:07;;;;;;;;;40.75;37.00;;;;;7.65;61.01;103371.84;6281427;22;45259;-88
2022/01/22 16:51:35;;;;;;;;;48.25;39.00;;;;;7.63;61.11;103372.59;6281109;22;45183;-89
2022/01/22 16:56:43;;;;;;;;;40.75;35.75;;;;;7.73;61.51;103401.09;6276976;22;45349;-87
2022/01/22 16:59:15;;;;;;;;;42.50;31.00;;;;;7.78;61.07;103417.97;6255273;22;47448;-88
2022/01/22 17:01:45;;;;;;;;;39.00;36.00;;;;;7.74;61.33;103416.88;6249961;22;45182;-90
2022/01/22 17:04:19;;;;;;;;;44.25;37.25;;;;;7.56;61.25;103380.97;6256579;22;45319;-87
2022/01/22 17:06:56;;;;;;;;;39.50;35.50;;;;;7.69;61.51;103394.78;6275894;22;45405;-84